Terminal Aerodrome Forecast
Issued by NWS Bismarck, ND

Home | Current Version | Previous Version | Text Only | Print | Product List | Glossary On
Versions: 1 2 3 4 5 6 7 8 9 10 11 12 13 14 15 16 17 18 19
000
FTUS43 KBIS 182326
TAFISN
TAF
KISN 182326Z 1900/1924 10010KT P6SM SCT050 SCT080 BKN150
      TEMPO 1902/1906 SCT050 BKN080
     FM190700 VRB04KT P6SM SCT060 BKN150
     FM191400 VRB04KT P6SM FEW050 SCT130
     FM191600 11006KT P6SM SCT060 BKN110
     FM192000 10007KT P6SM FEW060 SCT070=

USA.gov is the U.S. government's official web portal to all federal, state and local government web resources and services.